sensor_id;sensor_type;location;lat;lon;timestamp;pressure;altitude;pressure_sealevel;temperature;humidity
76011;BME280;64701;43.536;1.478;2024-01-25T00:00:36;101373.25;;;10.55;100.00
76011;BME280;64701;43.536;1.478;2024-01-25T00:03:01;101372.44;;;10.55;100.00
76011;BME280;64701;43.536;1.478;2024-01-25T00:05:27;101368.13;;;10.54;100.00
76011;BME280;64701;43.536;1.478;2024-01-25T00:07:52;101369.09;;;10.53;100.00
76011;BME280;64701;43.536;1.478;2024-01-25T00:10:18;101366.66;;;10.42;100.00
76011;BME280;64701;43.536;1.478;2024-01-25T00:12:43;101364.72;;;10.34;100.00
76011;BME280;64701;43.536;1.478;2024-01-25T00:15:09;101367.25;;;10.26;100.00
76011;BME280;64701;43.536;1.478;2024-01-25T00:17:34;101360.03;;;10.18;100.00
76011;BME280;64701;43.536;1.478;2024-01-25T00:19:59;101360.03;;;10.09;100.00
76011;BME280;64701;43.536;1.478;2024-01-25T00:22:25;101353.88;;;10.08;100.00
76011;BME280;64701;43.536;1.478;2024-01-25T00:24:50;101353.63;;;10.11;100.00
76011;BME280;64701;43.536;1.478;2024-01-25T00:27:15;101352.66;;;10.12;100.00
76011;BME280;64701;43.536;1.478;2024-01-25T00:29:41;101346.50;;;10.12;100.00
76011;BME280;64701;43.536;1.478;2024-01-25T00:32:06;101348.31;;;10.11;100.00
76011;BME280;64701;43.536;1.478;2024-01-25T00:34:31;101342.19;;;10.11;100.00
76011;BME280;64701;43.536;1.478;2024-01-25T00:36:57;101342.34;;;10.09;100.00
76011;BME280;64701;43.536;1.478;2024-01-25T00:39:22;101332.72;;;10.08;100.00
76011;BME280;64701;43.536;1.478;2024-01-25T00:41:48;101331.03;;;10.07;100.00
76011;BME280;64701;43.536;1.478;2024-01-25T00:44:15;101334.81;;;10.05;100.00
76011;BME280;64701;43.536;1.478;2024-01-25T00:46:41;101327.03;;;10.03;100.00
76011;BME280;64701;43.536;1.478;2024-01-25T00:49:06;101327.31;;;10.00;100.00
76011;BME280;64701;43.536;1.478;2024-01-25T00:51:32;101321.03;;;10.01;100.00
76011;BME280;64701;43.536;1.478;2024-01-25T00:53:57;101326.31;;;10.01;100.00
76011;BME280;64701;43.536;1.478;2024-01-25T00:56:22;101325.25;;;9.94;100.00
76011;BME280;64701;43.536;1.478;2024-01-25T00:58:48;101322.47;;;9.86;100.00
76011;BME280;64701;43.536;1.478;2024-01-25T01:01:13;101327.38;;;9.81;100.00
76011;BME280;64701;43.536;1.478;2024-01-25T01:03:39;101327.50;;;9.79;100.00
76011;BME280;64701;43.536;1.478;2024-01-25T01:06:04;101321.38;;;9.79;100.00
76011;BME280;64701;43.536;1.478;2024-01-25T01:08:30;101321.38;;;9.79;100.00
76011;BME280;64701;43.536;1.478;2024-01-25T01:10:55;101315.69;;;9.74;100.00
76011;BME280;64701;43.536;1.478;2024-01-25T01:13:20;101326.56;;;9.71;100.00
76011;BME280;64701;43.536;1.478;2024-01-25T01:15:45;101325.16;;;9.67;100.00
76011;BME280;64701;43.536;1.478;2024-01-25T01:18:11;101319.19;;;9.65;100.00
76011;BME280;64701;43.536;1.478;2024-01-25T01:20:36;101316.69;;;9.63;100.00
76011;BME280;64701;43.536;1.478;2024-01-25T01:23:01;101316.09;;;9.60;100.00
76011;BME280;64701;43.536;1.478;2024-01-25T01:25:27;101326.00;;;9.58;100.00
76011;BME280;64701;43.536;1.478;2024-01-25T01:27:52;101323.63;;;9.55;100.00
76011;BME280;64701;43.536;1.478;2024-01-25T01:30:17;101321.41;;;9.50;100.00
76011;BME280;64701;43.536;1.478;2024-01-25T01:32:42;101322.53;;;9.48;100.00
76011;BME280;64701;43.536;1.478;2024-01-25T01:35:08;101318.50;;;9.43;100.00
76011;BME280;64701;43.536;1.478;2024-01-25T01:37:33;101312.81;;;9.38;100.00
76011;BME280;64701;43.536;1.478;2024-01-25T01:39:58;101315.88;;;9.34;100.00
76011;BME280;64701;43.536;1.478;2024-01-25T01:42:24;101315.31;;;9.30;100.00
76011;BME280;64701;43.536;1.478;2024-01-25T01:44:50;101320.75;;;9.29;100.00
76011;BME280;64701;43.536;1.478;2024-01-25T01:47:17;101324.78;;;9.23;100.00
76011;BME280;64701;43.536;1.478;2024-01-25T01:49:42;101317.13;;;9.20;100.00
76011;BME280;64701;43.536;1.478;2024-01-25T01:52:07;101330.63;;;9.17;100.00
76011;BME280;64701;43.536;1.478;2024-01-25T01:54:33;101328.94;;;9.16;100.00
76011;BME280;64701;43.536;1.478;2024-01-25T01:56:58;101322.94;;;9.14;100.00
76011;BME280;64701;43.536;1.478;2024-01-25T01:59:24;101326.56;;;9.13;100.00
76011;BME280;64701;43.536;1.478;2024-01-25T02:01:51;101321.28;;;9.13;100.00
76011;BME280;64701;43.536;1.478;2024-01-25T02:04:16;101323.91;;;9.13;100.00
76011;BME280;64701;43.536;1.478;2024-01-25T02:06:42;101317.66;;;9.14;100.00
76011;BME280;64701;43.536;1.478;2024-01-25T02:09:08;101325.59;;;9.14;100.00
76011;BME280;64701;43.536;1.478;2024-01-25T02:11:34;101318.94;;;9.10;100.00
76011;BME280;64701;43.536;1.478;2024-01-25T02:14:00;101316.97;;;9.12;100.00
76011;BME280;64701;43.536;1.478;2024-01-25T02:16:25;101312.25;;;9.16;100.00
76011;BME280;64701;43.536;1.478;2024-01-25T02:18:50;101312.81;;;9.19;100.00
76011;BME280;64701;43.536;1.478;2024-01-25T02:21:16;101310.16;;;9.19;100.00
76011;BME280;64701;43.536;1.478;2024-01-25T02:23:42;101309.06;;;9.22;100.00
76011;BME280;64701;43.536;1.478;2024-01-25T02:26:07;101305.28;;;9.24;100.00
76011;BME280;64701;43.536;1.478;2024-01-25T02:28:32;101304.06;;;9.28;100.00
76011;BME280;64701;43.536;1.478;2024-01-25T02:30:58;101296.78;;;9.30;100.00
76011;BME280;64701;43.536;1.478;2024-01-25T02:33:24;101297.50;;;9.32;100.00
76011;BME280;64701;43.536;1.478;2024-01-25T02:35:49;101291.91;;;9.35;100.00
76011;BME280;64701;43.536;1.478;2024-01-25T02:38:14;101281.34;;;9.35;100.00
76011;BME280;64701;43.536;1.478;2024-01-25T02:40:39;101283.84;;;9.37;100.00
76011;BME280;64701;43.536;1.478;2024-01-25T02:43:05;101281.06;;;9.38;100.00
76011;BME280;64701;43.536;1.478;2024-01-25T02:45:30;101283.28;;;9.43;100.00
76011;BME280;64701;43.536;1.478;2024-01-25T02:47:55;101283.03;;;9.46;100.00
76011;BME280;64701;43.536;1.478;2024-01-25T02:50:20;101283.88;;;9.47;100.00
76011;BME280;64701;43.536;1.478;2024-01-25T02:52:46;101277.31;;;9.51;100.00
76011;BME280;64701;43.536;1.478;2024-01-25T02:55:11;101280.50;;;9.54;100.00
76011;BME280;64701;43.536;1.478;2024-01-25T02:57:37;101276.88;;;9.55;100.00
76011;BME280;64701;43.536;1.478;2024-01-25T03:00:02;101274.09;;;9.57;100.00
76011;BME280;64701;43.536;1.478;2024-01-25T03:02:28;101272.81;;;9.61;100.00
76011;BME280;64701;43.536;1.478;2024-01-25T03:04:53;101271.59;;;9.65;100.00
76011;BME280;64701;43.536;1.478;2024-01-25T03:07:18;101266.84;;;9.68;100.00
76011;BME280;64701;43.536;1.478;2024-01-25T03:09:44;101255.81;;;9.73;100.00
76011;BME280;64701;43.536;1.478;2024-01-25T03:12:09;101247.59;;;9.76;100.00
76011;BME280;64701;43.536;1.478;2024-01-25T03:14:34;101255.94;;;9.81;100.00
76011;BME280;64701;43.536;1.478;2024-01-25T03:17:00;101251.19;;;9.84;100.00
76011;BME280;64701;43.536;1.478;2024-01-25T03:19:26;101253.38;;;9.89;100.00
76011;BME280;64701;43.536;1.478;2024-01-25T03:21:51;101259.09;;;9.94;100.00
76011;BME280;64701;43.536;1.478;2024-01-25T03:24:17;101250.59;;;10.00;100.00
76011;BME280;64701;43.536;1.478;2024-01-25T03:26:42;101248.47;;;10.04;100.00
76011;BME280;64701;43.536;1.478;2024-01-25T03:29:07;101249.16;;;10.06;100.00
76011;BME280;64701;43.536;1.478;2024-01-25T03:31:33;101238.28;;;10.09;100.00
76011;BME280;64701;43.536;1.478;2024-01-25T03:33:58;101237.81;;;10.13;100.00
76011;BME280;64701;43.536;1.478;2024-01-25T03:36:23;101239.25;;;10.17;100.00
76011;BME280;64701;43.536;1.478;2024-01-25T03:38:49;101242.28;;;10.22;100.00
76011;BME280;64701;43.536;1.478;2024-01-25T03:41:14;101231.56;;;10.24;100.00
76011;BME280;64701;43.536;1.478;2024-01-25T03:43:39;101230.41;;;10.27;100.00
76011;BME280;64701;43.536;1.478;2024-01-25T03:46:04;101230.13;;;10.30;100.00
76011;BME280;64701;43.536;1.478;2024-01-25T03:48:30;101226.66;;;10.29;100.00
76011;BME280;64701;43.536;1.478;2024-01-25T03:50:55;101219.53;;;10.30;100.00
76011;BME280;64701;43.536;1.478;2024-01-25T03:53:21;101207.81;;;10.32;100.00
76011;BME280;64701;43.536;1.478;2024-01-25T03:55:47;101206.97;;;10.32;100.00
76011;BME280;64701;43.536;1.478;2024-01-25T03:58:14;101199.19;;;10.30;100.00
76011;BME280;64701;43.536;1.478;2024-01-25T04:00:39;101205.34;;;10.31;100.00
76011;BME280;64701;43.536;1.478;2024-01-25T04:03:04;101207.66;;;10.34;100.00
76011;BME280;64701;43.536;1.478;2024-01-25T04:05:29;101206.69;;;10.35;100.00
76011;BME280;64701;43.536;1.478;2024-01-25T04:07:55;101206.00;;;10.33;100.00
76011;BME280;64701;43.536;1.478;2024-01-25T04:10:20;101207.81;;;10.32;100.00
76011;BME280;64701;43.536;1.478;2024-01-25T04:12:45;101203.06;;;10.36;100.00
76011;BME280;64701;43.536;1.478;2024-01-25T04:15:10;101203.06;;;10.36;100.00
76011;BME280;64701;43.536;1.478;2024-01-25T04:17:36;101198.06;;;10.33;100.00
76011;BME280;64701;43.536;1.478;2024-01-25T04:20:01;101198.06;;;10.33;100.00
76011;BME280;64701;43.536;1.478;2024-01-25T04:22:26;101200.56;;;10.34;100.00
76011;BME280;64701;43.536;1.478;2024-01-25T04:24:51;101197.06;;;10.34;100.00
76011;BME280;64701;43.536;1.478;2024-01-25T04:27:19;101200.69;;;10.33;100.00
76011;BME280;64701;43.536;1.478;2024-01-25T04:29:44;101207.81;;;10.32;100.00
76011;BME280;64701;43.536;1.478;2024-01-25T04:32:09;101198.06;;;10.33;100.00
76011;BME280;64701;43.536;1.478;2024-01-25T04:34:35;101202.38;;;10.34;100.00
76011;BME280;64701;43.536;1.478;2024-01-25T04:37:00;101194.44;;;10.34;100.00
76011;BME280;64701;43.536;1.478;2024-01-25T04:39:26;101196.09;;;10.35;100.00
76011;BME280;64701;43.536;1.478;2024-01-25T04:41:51;101189.66;;;10.37;100.00
76011;BME280;64701;43.536;1.478;2024-01-25T04:44:17;101187.84;;;10.38;100.00
76011;BME280;64701;43.536;1.478;2024-01-25T04:46:42;101188.53;;;10.40;100.00
76011;BME280;64701;43.536;1.478;2024-01-25T04:49:07;101183.94;;;10.42;100.00
76011;BME280;64701;43.536;1.478;2024-01-25T04:51:32;101184.78;;;10.42;100.00
76011;BME280;64701;43.536;1.478;2024-01-25T04:53:58;101184.78;;;10.42;100.00
76011;BME280;64701;43.536;1.478;2024-01-25T04:56:23;101188.41;;;10.41;100.00
76011;BME280;64701;43.536;1.478;2024-01-25T04:58:48;101188.41;;;10.41;100.00
76011;BME280;64701;43.536;1.478;2024-01-25T05:01:13;101188.22;;;10.43;100.00
76011;BME280;64701;43.536;1.478;2024-01-25T05:03:39;101189.88;;;10.44;100.00
76011;BME280;64701;43.536;1.478;2024-01-25T05:06:04;101188.41;;;10.41;100.00
76011;BME280;64701;43.536;1.478;2024-01-25T05:08:29;101190.22;;;10.41;100.00
76011;BME280;64701;43.536;1.478;2024-01-25T05:10:54;101189.38;;;10.40;100.00
76011;BME280;64701;43.536;1.478;2024-01-25T05:13:20;101179.63;;;10.41;100.00
76011;BME280;64701;43.536;1.478;2024-01-25T05:15:45;101191.88;;;10.42;100.00
76011;BME280;64701;43.536;1.478;2024-01-25T05:18:10;101186.59;;;10.42;100.00
76011;BME280;64701;43.536;1.478;2024-01-25T05:20:35;101184.59;;;10.44;100.00
76011;BME280;64701;43.536;1.478;2024-01-25T05:23:03;101183.75;;;10.43;100.00
76011;BME280;64701;43.536;1.478;2024-01-25T05:25:28;101177.94;;;10.40;100.00
76011;BME280;64701;43.536;1.478;2024-01-25T05:27:54;101179.84;;;10.30;100.00
76011;BME280;64701;43.536;1.478;2024-01-25T05:30:20;101177.47;;;10.27;100.00
76011;BME280;64701;43.536;1.478;2024-01-25T05:32:45;101185.03;;;10.21;100.00
76011;BME280;64701;43.536;1.478;2024-01-25T05:35:11;101183.06;;;10.23;100.00
76011;BME280;64701;43.536;1.478;2024-01-25T05:37:36;101178.38;;;10.17;100.00
76011;BME280;64701;43.536;1.478;2024-01-25T05:40:01;101183.91;;;10.14;100.00
76011;BME280;64701;43.536;1.478;2024-01-25T05:42:27;101173.31;;;10.14;100.00
76011;BME280;64701;43.536;1.478;2024-01-25T05:44:52;101167.19;;;10.14;100.00
76011;BME280;64701;43.536;1.478;2024-01-25T05:47:17;101164.41;;;10.15;100.00
76011;BME280;64701;43.536;1.478;2024-01-25T05:49:43;101173.31;;;10.14;100.00
76011;BME280;64701;43.536;1.478;2024-01-25T05:52:08;101176.69;;;10.16;100.00
76011;BME280;64701;43.536;1.478;2024-01-25T05:54:33;101178.38;;;10.17;100.00
76011;BME280;64701;43.536;1.478;2024-01-25T05:56:58;101174.56;;;10.20;100.00
76011;BME280;64701;43.536;1.478;2024-01-25T05:59:24;101174.44;;;10.21;100.00
76011;BME280;64701;43.536;1.478;2024-01-25T06:01:49;101177.78;;;10.23;100.00
76011;BME280;64701;43.536;1.478;2024-01-25T06:04:14;101175.13;;;10.23;100.00
76011;BME280;64701;43.536;1.478;2024-01-25T06:06:39;101170.81;;;10.22;100.00
76011;BME280;64701;43.536;1.478;2024-01-25T06:09:05;101166.34;;;10.23;100.00
76011;BME280;64701;43.536;1.478;2024-01-25T06:11:30;101176.09;;;10.22;100.00
76011;BME280;64701;43.536;1.478;2024-01-25T06:13:56;101175.78;;;10.26;100.00
76011;BME280;64701;43.536;1.478;2024-01-25T06:16:22;101178.91;;;10.21;100.00
76011;BME280;64701;43.536;1.478;2024-01-25T06:18:47;101181.69;;;10.19;100.00
76011;BME280;64701;43.536;1.478;2024-01-25T06:21:12;101183.66;;;10.17;100.00
76011;BME280;64701;43.536;1.478;2024-01-25T06:23:38;101178.38;;;10.17;100.00
76011;BME280;64701;43.536;1.478;2024-01-25T06:26:03;101181.03;;;10.17;100.00
76011;BME280;64701;43.536;1.478;2024-01-25T06:28:29;101178.38;;;10.17;100.00
76011;BME280;64701;43.536;1.478;2024-01-25T06:30:54;101179.34;;;10.16;100.00
76011;BME280;64701;43.536;1.478;2024-01-25T06:33:20;101172.25;;;10.17;100.00
76011;BME280;64701;43.536;1.478;2024-01-25T06:35:45;101171.41;;;10.16;100.00
76011;BME280;64701;43.536;1.478;2024-01-25T06:38:10;101176.69;;;10.16;100.00
76011;BME280;64701;43.536;1.478;2024-01-25T06:40:35;101174.06;;;10.16;100.00
76011;BME280;64701;43.536;1.478;2024-01-25T06:43:01;101177.66;;;10.15;100.00
76011;BME280;64701;43.536;1.478;2024-01-25T06:45:26;101178.63;;;10.14;100.00
76011;BME280;64701;43.536;1.478;2024-01-25T06:47:52;101181.41;;;10.13;100.00
76011;BME280;64701;43.536;1.478;2024-01-25T06:50:17;101185.91;;;10.12;100.00
76011;BME280;64701;43.536;1.478;2024-01-25T06:52:42;101185.19;;;10.10;100.00
76011;BME280;64701;43.536;1.478;2024-01-25T06:55:07;101179.22;;;10.08;100.00
76011;BME280;64701;43.536;1.478;2024-01-25T06:57:33;101182.84;;;10.07;100.00
76011;BME280;64701;43.536;1.478;2024-01-25T06:59:58;101181.78;;;10.00;100.00
76011;BME280;64701;43.536;1.478;2024-01-25T07:02:23;101177.31;;;10.01;100.00
76011;BME280;64701;43.536;1.478;2024-01-25T07:04:49;101170.38;;;10.00;100.00
76011;BME280;64701;43.536;1.478;2024-01-25T07:07:17;101173.84;;;10.00;100.00
76011;BME280;64701;43.536;1.478;2024-01-25T07:09:43;101170.50;;;9.98;100.00
76011;BME280;64701;43.536;1.478;2024-01-25T07:12:08;101173.75;;;9.92;100.00
76011;BME280;64701;43.536;1.478;2024-01-25T07:14:33;101172.38;;;9.88;100.00
76011;BME280;64701;43.536;1.478;2024-01-25T07:16:58;101168.78;;;9.79;100.00
76011;BME280;64701;43.536;1.478;2024-01-25T07:19:24;101169.91;;;9.77;100.00
76011;BME280;64701;43.536;1.478;2024-01-25T07:21:49;101166.59;;;9.75;100.00
76011;BME280;64701;43.536;1.478;2024-01-25T07:24:14;101161.56;;;9.72;100.00
76011;BME280;64701;43.536;1.478;2024-01-25T07:26:40;101169.09;;;9.67;100.00
76011;BME280;64701;43.536;1.478;2024-01-25T07:29:05;101163.16;;;9.65;100.00
76011;BME280;64701;43.536;1.478;2024-01-25T07:31:30;101165.78;;;9.65;100.00
76011;BME280;64701;43.536;1.478;2024-01-25T07:33:55;101171.34;;;9.62;100.00
76011;BME280;64701;43.536;1.478;2024-01-25T07:36:21;101177.09;;;9.57;100.00
76011;BME280;64701;43.536;1.478;2024-01-25T07:38:46;101180.00;;;9.54;100.00
76011;BME280;64701;43.536;1.478;2024-01-25T07:41:15;101181.16;;;9.52;100.00
76011;BME280;64701;43.536;1.478;2024-01-25T07:43:40;101177.81;;;9.50;100.00
76011;BME280;64701;43.536;1.478;2024-01-25T07:46:05;101174.47;;;9.48;100.00
76011;BME280;64701;43.536;1.478;2024-01-25T07:48:31;101179.75;;;9.48;100.00
76011;BME280;64701;43.536;1.478;2024-01-25T07:50:56;101177.28;;;9.46;100.00
76011;BME280;64701;43.536;1.478;2024-01-25T07:53:22;101176.13;;;9.49;100.00
76011;BME280;64701;43.536;1.478;2024-01-25T07:55:47;101170.00;;;9.48;100.00
76011;BME280;64701;43.536;1.478;2024-01-25T07:58:14;101183.09;;;9.50;100.00
76011;BME280;64701;43.536;1.478;2024-01-25T08:00:39;101181.97;;;9.52;100.00
76011;BME280;64701;43.536;1.478;2024-01-25T08:03:05;101179.16;;;9.54;100.00
76011;BME280;64701;43.536;1.478;2024-01-25T08:05:30;101185.16;;;9.56;100.00
76011;BME280;64701;43.536;1.478;2024-01-25T08:07:55;101185.47;;;9.53;100.00
76011;BME280;64701;43.536;1.478;2024-01-25T08:10:21;101182.81;;;9.53;100.00
76011;BME280;64701;43.536;1.478;2024-01-25T08:12:46;101179.47;;;9.51;100.00
76011;BME280;64701;43.536;1.478;2024-01-25T08:15:12;101180.00;;;9.54;100.00
76011;BME280;64701;43.536;1.478;2024-01-25T08:17:38;101177.09;;;9.48;100.00
76011;BME280;64701;43.536;1.478;2024-01-25T08:20:03;101181.72;;;9.46;100.00
76011;BME280;64701;43.536;1.478;2024-01-25T08:22:31;101183.66;;;9.43;100.00
76011;BME280;64701;43.536;1.478;2024-01-25T08:24:56;101188.13;;;9.43;100.00
76011;BME280;64701;43.536;1.478;2024-01-25T08:27:21;101175.47;;;9.47;100.00
76011;BME280;64701;43.536;1.478;2024-01-25T08:29:46;101181.41;;;9.49;100.00
76011;BME280;64701;43.536;1.478;2024-01-25T08:32:12;101184.75;;;9.51;100.00
76011;BME280;64701;43.536;1.478;2024-01-25T08:34:37;101181.81;;;9.54;100.00
76011;BME280;64701;43.536;1.478;2024-01-25T08:37:02;101189.47;;;9.57;100.00
76011;BME280;64701;43.536;1.478;2024-01-25T08:39:28;101194.31;;;9.61;100.00
76011;BME280;64701;43.536;1.478;2024-01-25T08:41:53;101185.94;;;9.66;100.00
76011;BME280;64701;43.536;1.478;2024-01-25T08:44:18;101190.00;;;9.70;100.00
76011;BME280;64701;43.536;1.478;2024-01-25T08:46:43;101180.78;;;9.74;100.00
76011;BME280;64701;43.536;1.478;2024-01-25T08:49:09;101177.03;;;9.76;100.00
76011;BME280;64701;43.536;1.478;2024-01-25T08:51:35;101175.75;;;9.80;100.00
76011;BME280;64701;43.536;1.478;2024-01-25T08:54:00;101178.53;;;9.79;100.00
76011;BME280;64701;43.536;1.478;2024-01-25T08:56:26;101188.44;;;9.77;100.00
76011;BME280;64701;43.536;1.478;2024-01-25T08:58:51;101187.16;;;9.81;100.00
76011;BME280;64701;43.536;1.478;2024-01-25T09:01:17;101183.38;;;9.83;100.00
76011;BME280;64701;43.536;1.478;2024-01-25T09:03:42;101190.19;;;9.86;100.00
76011;BME280;64701;43.536;1.478;2024-01-25T09:06:08;101184.59;;;9.89;100.00
76011;BME280;64701;43.536;1.478;2024-01-25T09:08:33;101184.31;;;9.92;100.00
76011;BME280;64701;43.536;1.478;2024-01-25T09:10:58;101192.78;;;9.96;100.00
76011;BME280;64701;43.536;1.478;2024-01-25T09:13:24;101196.81;;;10.00;100.00
76011;BME280;64701;43.536;1.478;2024-01-25T09:15:49;101200.69;;;10.05;100.00
76011;BME280;64701;43.536;1.478;2024-01-25T09:18:15;101202.06;;;10.09;100.00
76011;BME280;64701;43.536;1.478;2024-01-25T09:20:40;101201.47;;;10.15;100.00
76011;BME280;64701;43.536;1.478;2024-01-25T09:23:06;101202.84;;;10.19;100.00
76011;BME280;64701;43.536;1.478;2024-01-25T09:25:31;101202.44;;;10.24;100.00
76011;BME280;64701;43.536;1.478;2024-01-25T09:27:57;101199.34;;;10.29;100.00
76011;BME280;64701;43.536;1.478;2024-01-25T09:30:23;101203.34;;;10.33;100.00
76011;BME280;64701;43.536;1.478;2024-01-25T09:32:48;101202.09;;;10.37;100.00
76011;BME280;64701;43.536;1.478;2024-01-25T09:35:14;101208.75;;;10.41;100.00
76011;BME280;64701;43.536;1.478;2024-01-25T09:37:39;101201.47;;;10.43;100.00
76011;BME280;64701;43.536;1.478;2024-01-25T09:40:05;101200.34;;;10.45;100.00
76011;BME280;64701;43.536;1.478;2024-01-25T09:42:30;101203.00;;;10.45;100.00
76011;BME280;64701;43.536;1.478;2024-01-25T09:44:56;101205.19;;;10.50;100.00
76011;BME280;64701;43.536;1.478;2024-01-25T09:47:21;101206.84;;;10.51;100.00
76011;BME280;64701;43.536;1.478;2024-01-25T09:49:47;101199.59;;;10.53;100.00
76011;BME280;64701;43.536;1.478;2024-01-25T09:52:12;101200.13;;;10.56;100.00
76011;BME280;64701;43.536;1.478;2024-01-25T09:54:38;101187.56;;;10.58;100.00
76011;BME280;64701;43.536;1.478;2024-01-25T09:57:08;101193.25;;;10.63;100.00
76011;BME280;64701;43.536;1.478;2024-01-25T09:59:38;101192.78;;;10.68;100.00
76011;BME280;64701;43.536;1.478;2024-01-25T10:02:04;101195.81;;;10.73;100.00
76011;BME280;64701;43.536;1.478;2024-01-25T10:04:29;101199.84;;;10.77;100.00
76011;BME280;64701;43.536;1.478;2024-01-25T10:06:58;101193.25;;;10.81;100.00
76011;BME280;64701;43.536;1.478;2024-01-25T10:09:23;101201.56;;;10.86;100.00
76011;BME280;64701;43.536;1.478;2024-01-25T10:11:48;101188.69;;;10.91;100.00
76011;BME280;64701;43.536;1.478;2024-01-25T10:14:14;101184.59;;;10.97;100.00
76011;BME280;64701;43.536;1.478;2024-01-25T10:16:39;101185.50;;;11.05;100.00
76011;BME280;64701;43.536;1.478;2024-01-25T10:19:07;101192.84;;;11.12;100.00
76011;BME280;64701;43.536;1.478;2024-01-25T10:21:34;101183.91;;;11.13;100.00
76011;BME280;64701;43.536;1.478;2024-01-25T10:24:00;101190.63;;;11.25;100.00
76011;BME280;64701;43.536;1.478;2024-01-25T10:26:26;101189.38;;;11.37;100.00
76011;BME280;64701;43.536;1.478;2024-01-25T10:28:53;101192.06;;;11.45;100.00
76011;BME280;64701;43.536;1.478;2024-01-25T10:31:18;101192.81;;;11.55;100.00
76011;BME280;64701;43.536;1.478;2024-01-25T10:33:44;101184.72;;;11.65;100.00
76011;BME280;64701;43.536;1.478;2024-01-25T10:36:10;101181.56;;;11.61;100.00
76011;BME280;64701;43.536;1.478;2024-01-25T10:38:36;101187.88;;;11.68;100.00
76011;BME280;64701;43.536;1.478;2024-01-25T10:41:02;101183.34;;;11.78;100.00
76011;BME280;64701;43.536;1.478;2024-01-25T10:43:31;101175.94;;;11.90;100.00
76011;BME280;64701;43.536;1.478;2024-01-25T10:45:56;101172.34;;;12.07;100.00
76011;BME280;64701;43.536;1.478;2024-01-25T10:48:23;101167.59;;;12.27;100.00
76011;BME280;64701;43.536;1.478;2024-01-25T10:50:49;101160.97;;;12.39;100.00
76011;BME280;64701;43.536;1.478;2024-01-25T10:53:15;101157.34;;;12.56;100.00
76011;BME280;64701;43.536;1.478;2024-01-25T10:55:41;101157.66;;;12.69;100.00
76011;BME280;64701;43.536;1.478;2024-01-25T10:58:07;101149.72;;;12.86;100.00
76011;BME280;64701;43.536;1.478;2024-01-25T11:00:33;101143.72;;;13.00;100.00
76011;BME280;64701;43.536;1.478;2024-01-25T11:03:00;101144.72;;;13.07;100.00
76011;BME280;64701;43.536;1.478;2024-01-25T11:05:25;101138.06;;;13.19;100.00
76011;BME280;64701;43.536;1.478;2024-01-25T11:07:51;101131.75;;;13.28;100.00
76011;BME280;64701;43.536;1.478;2024-01-25T11:10:17;101124.94;;;13.34;100.00
76011;BME280;64701;43.536;1.478;2024-01-25T11:15:19;101118.25;;;13.38;100.00
76011;BME280;64701;43.536;1.478;2024-01-25T11:17:50;101112.78;;;13.39;100.00
76011;BME280;64701;43.536;1.478;2024-01-25T11:20:15;101104.34;;;13.67;100.00
76011;BME280;64701;43.536;1.478;2024-01-25T11:22:44;101101.47;;;14.07;100.00
76011;BME280;64701;43.536;1.478;2024-01-25T11:25:28;101093.84;;;14.58;100.00
76011;BME280;64701;43.536;1.478;2024-01-25T11:27:53;101084.09;;;15.17;100.00
76011;BME280;64701;43.536;1.478;2024-01-25T11:30:19;101085.22;;;15.67;100.00
76011;BME280;64701;43.536;1.478;2024-01-25T11:32:48;101082.81;;;16.08;100.00
76011;BME280;64701;43.536;1.478;2024-01-25T11:35:13;101076.34;;;16.17;94.51
76011;BME280;64701;43.536;1.478;2024-01-25T11:37:42;101088.00;;;16.73;100.00
76011;BME280;64701;43.536;1.478;2024-01-25T11:40:08;101080.53;;;17.24;98.97
76011;BME280;64701;43.536;1.478;2024-01-25T11:42:34;101079.41;;;17.81;99.94
76011;BME280;64701;43.536;1.478;2024-01-25T11:44:59;101061.59;;;18.27;94.15
76011;BME280;64701;43.536;1.478;2024-01-25T11:47:25;101059.19;;;18.59;91.18
76011;BME280;64701;43.536;1.478;2024-01-25T11:49:50;101052.53;;;18.94;84.24
76011;BME280;64701;43.536;1.478;2024-01-25T11:52:15;101045.41;;;19.39;85.14
76011;BME280;64701;43.536;1.478;2024-01-25T11:54:41;101044.00;;;19.81;86.56
76011;BME280;64701;43.536;1.478;2024-01-25T11:57:06;101043.75;;;20.21;87.47
76011;BME280;64701;43.536;1.478;2024-01-25T11:59:31;101033.25;;;20.44;75.50
76011;BME280;64701;43.536;1.478;2024-01-25T12:01:57;101033.81;;;20.77;79.50
76011;BME280;64701;43.536;1.478;2024-01-25T12:04:22;101027.44;;;20.97;74.56
76011;BME280;64701;43.536;1.478;2024-01-25T12:06:49;101026.09;;;21.42;79.02
76011;BME280;64701;43.536;1.478;2024-01-25T12:09:14;101021.00;;;21.82;75.23
76011;BME280;64701;43.536;1.478;2024-01-25T12:11:40;101014.69;;;22.18;73.27
76011;BME280;64701;43.536;1.478;2024-01-25T12:14:07;101009.06;;;22.20;68.06
76011;BME280;64701;43.536;1.478;2024-01-25T12:16:32;101007.84;;;22.69;71.66
76011;BME280;64701;43.536;1.478;2024-01-25T12:18:58;100997.38;;;23.07;69.25
76011;BME280;64701;43.536;1.478;2024-01-25T12:21:23;100990.50;;;23.40;65.44
76011;BME280;64701;43.536;1.478;2024-01-25T12:23:48;100994.38;;;23.72;68.84
76011;BME280;64701;43.536;1.478;2024-01-25T12:26:13;100985.28;;;24.07;65.39
76011;BME280;64701;43.536;1.478;2024-01-25T12:28:41;100984.56;;;24.28;61.21
76011;BME280;64701;43.536;1.478;2024-01-25T12:31:06;100979.06;;;24.56;60.85
76011;BME280;64701;43.536;1.478;2024-01-25T12:33:32;100978.53;;;24.76;57.50
76011;BME280;64701;43.536;1.478;2024-01-25T12:35:58;100969.97;;;25.01;58.06
76011;BME280;64701;43.536;1.478;2024-01-25T12:38:23;100978.34;;;25.21;59.95